Etusivu
METAR-TAF:

METAR-TAF

Lentoasemat :

Kirksville Regional Airport

Kirksville, Missouri, Yhdysvallat

Leveyspiiri: 40-05-50N, Pituuspiiri: 092-32-36W, korkeus merenpinnasta: 294 m

Tämänhetkinen sää

Tämä raportti tehtiin 16 minuuttia sitten, kello 08.55 UTC
Tuuli 5 kn idästä/kaakosta
Lämpötila 2°C
Kosteus 87%
Ilmanpaine 1013 hPa
Näkyvyys: 16.1 km
Pilvistä 5000 ft:n korkeudessa

METAR: KIRK 170855Z AUTO 12005KT 10SM OVC050 02/00 A2992 RMK AO2 SLP141 T00170000 58011 $

Aika: 03:11 (09:11 UTC)


TAF: puuttuu

Säähavainnot ja -ennusteet yli 4000 lentoasemalta (METAR- ja TAF-raportit).

Käytössä olevat sääasemat on merkitty karttaan keltaisilla ja punaisilla pisteillä.

Aseta hiiri pisteen päälle nähdäksesi sääaseman nimen.

Klikkaa sitten nähdäksesi säähavainnot ja -ennusteet.

Kartan vaihtaminen: klikkaa mustalla rastilla varustettuja vihreitä pisteitä, niin voit zoomata sisään; viivalla varustettua vihreää pistettä, niin voit zoomata ulos tai vihreitä nuolia, niin pääset viereisille kartoille.


METAR-TAF: